EGUL

RAF Lakenheath Airport

Lakenheath, United Kingdom
METAR EGUL 251456Z AUTO 23012KT 9999 CLR 17/04 A3056 RMK AO2 SLP352 T01690039 57026 $
Observed Flight Rules
Sep-25 @ 14:56 UTC (38 minutes ago) Visual Flight Rules
Wind Visibility Clouds
230° at 12 knots 10,000+ meters
  • Clear skies
Temperatures Readings
Current 17°C / 63°F
Dewpoint 4°C / 39°F
Humidity 42%
Altimeter 30.56" Hg
Pressure 1035.2 hPa
Elevation 10
METAR EGUL 251456Z AUTO 23012KT 9999 CLR 17/04 A3056 RMK AO2 SLP352 T01690039 57026 $
Observed Flight Rules
Sep-25 @ 14:56 UTC
(38 minutes ago)
VFR
Wind Visibility
230° at 12 knots 10,000+ meters
Clouds
  • Clear skies
Temperature Dewpoint
17°C / 63°F 4°C / 39°F
Humidity Altimeter Pressure
42% 30.56" Hg 1035.2 hPa